createdAt,value
2023-03-29T00:00:14.485Z,62.05
2023-03-29T00:02:43.253Z,63.39
2023-03-29T00:05:12.395Z,64.13
2023-03-29T00:07:41.329Z,63.49
2023-03-29T00:10:11.175Z,62.30
2023-03-29T00:12:41.110Z,64.24
2023-03-29T00:15:11.830Z,65.88
2023-03-29T00:17:40.259Z,65.73
2023-03-29T00:20:10.317Z,66.24
2023-03-29T00:22:42.271Z,66.12
2023-03-29T00:25:11.502Z,67.16
2023-03-29T00:27:39.975Z,64.68
2023-03-29T00:30:11.295Z,65.03
2023-03-29T00:32:39.501Z,66.87
2023-03-29T00:35:09.138Z,65.50
2023-03-29T00:37:38.103Z,65.64
2023-03-29T00:40:09.893Z,64.11
2023-03-29T00:42:38.249Z,65.53
2023-03-29T00:45:18.868Z,66.45
2023-03-29T00:47:51.596Z,66.96
2023-03-29T00:50:25.943Z,68.26
2023-03-29T00:53:00.952Z,68.26
2023-03-29T00:55:34.263Z,69.22
2023-03-29T00:58:05.236Z,70.06
2023-03-29T01:00:38.044Z,69.96
2023-03-29T01:03:13.893Z,70.26
2023-03-29T01:05:46.623Z,71.22
2023-03-29T01:08:20.849Z,72.36
2023-03-29T01:10:52.413Z,72.84
2023-03-29T01:13:26.426Z,72.60
2023-03-29T01:15:57.637Z,71.82
2023-03-29T01:18:27.780Z,71.69
2023-03-29T01:21:15.512Z,72.30
2023-03-29T01:23:58.395Z,73.31
2023-03-29T01:26:37.288Z,73.15
2023-03-29T01:29:11.066Z,73.58
2023-03-29T01:31:43.470Z,73.61
2023-03-29T01:34:16.217Z,74.21
2023-03-29T01:36:51.674Z,73.90
2023-03-29T01:39:20.645Z,75.03
2023-03-29T01:41:57.942Z,74.78
2023-03-29T01:44:33.123Z,75.21
2023-03-29T01:47:08.355Z,75.18
2023-03-29T01:49:42.305Z,74.90
2023-03-29T01:52:18.100Z,75.31
2023-03-29T01:54:51.954Z,74.83
2023-03-29T01:57:25.187Z,75.51
2023-03-29T01:59:57.743Z,75.58
2023-03-29T02:02:29.064Z,74.80
2023-03-29T02:04:59.433Z,74.53
2023-03-29T02:07:32.414Z,74.64
2023-03-29T02:10:01.033Z,75.12
2023-03-29T02:12:29.246Z,75.98
2023-03-29T02:15:00.853Z,76.02
2023-03-29T02:17:30.100Z,75.90
2023-03-29T02:20:02.120Z,75.84
2023-03-29T02:22:37.802Z,76.01
2023-03-29T02:25:09.578Z,76.12
2023-03-29T02:27:39.242Z,75.06
2023-03-29T02:30:11.990Z,75.43
2023-03-29T02:32:50.322Z,74.91
2023-03-29T02:35:24.890Z,75.19
2023-03-29T02:37:56.505Z,75.71
2023-03-29T02:40:26.121Z,75.48
2023-03-29T02:42:56.801Z,74.03
2023-03-29T02:45:27.778Z,74.96
2023-03-29T02:47:58.719Z,75.49
2023-03-29T02:50:30.367Z,75.50
2023-03-29T02:53:01.863Z,76.23
2023-03-29T02:55:34.885Z,76.32
2023-03-29T02:58:08.051Z,76.20
2023-03-29T03:00:40.919Z,76.46
2023-03-29T03:03:10.390Z,76.37
2023-03-29T03:05:39.134Z,77.08
2023-03-29T03:08:08.780Z,76.32
2023-03-29T03:10:37.218Z,76.68
2023-03-29T03:13:05.878Z,77.47
2023-03-29T03:15:35.929Z,77.23
2023-03-29T03:18:05.936Z,76.54
2023-03-29T03:20:34.828Z,76.29
2023-03-29T03:23:04.315Z,76.64
2023-03-29T03:25:33.254Z,76.71
2023-03-29T03:28:01.492Z,76.37
2023-03-29T03:30:30.010Z,75.63
2023-03-29T03:33:29.243Z,77.13
2023-03-29T03:36:36.201Z,76.64
2023-03-29T03:39:07.241Z,77.10
2023-03-29T03:41:36.027Z,76.95
2023-03-29T03:44:04.374Z,76.44
2023-03-29T03:46:32.771Z,75.87
2023-03-29T03:49:03.129Z,75.63
2023-03-29T03:51:34.467Z,75.31
2023-03-29T03:54:02.822Z,75.52
2023-03-29T03:56:37.420Z,75.27
2023-03-29T03:59:05.953Z,75.62
2023-03-29T04:01:51.156Z,76.66
2023-03-29T04:04:24.873Z,76.50
2023-03-29T04:07:19.569Z,75.01
2023-03-29T04:09:56.499Z,76.25
2023-03-29T04:12:50.654Z,76.58
2023-03-29T04:15:20.386Z,76.58
2023-03-29T04:18:01.521Z,76.58
2023-03-29T04:20:37.514Z,77.16
2023-03-29T04:23:06.142Z,76.18
2023-03-29T04:25:35.389Z,75.76
2023-03-29T04:28:23.936Z,76.68
2023-03-29T04:31:13.378Z,77.77
2023-03-29T04:33:49.195Z,78.19
2023-03-29T04:36:18.926Z,78.07
2023-03-29T04:38:48.111Z,76.81
2023-03-29T04:41:17.596Z,77.61
2023-03-29T04:43:59.667Z,78.29
2023-03-29T04:46:32.556Z,78.58
2023-03-29T04:49:19.280Z,76.49
2023-03-29T04:51:53.391Z,77.58
2023-03-29T04:54:25.277Z,78.94
2023-03-29T04:57:09.637Z,79.37
2023-03-29T04:59:56.514Z,77.56
2023-03-29T05:02:46.062Z,78.04
2023-03-29T05:05:15.313Z,77.48
2023-03-29T05:07:46.735Z,77.20
2023-03-29T05:10:16.321Z,76.33
2023-03-29T05:12:44.533Z,75.89
2023-03-29T05:15:13.529Z,73.98
2023-03-29T05:17:42.439Z,73.31
2023-03-29T05:20:14.095Z,72.99
2023-03-29T05:22:46.272Z,73.68
2023-03-29T05:25:26.437Z,72.34
2023-03-29T05:27:54.618Z,73.92
2023-03-29T05:30:22.946Z,74.82
2023-03-29T05:33:07.078Z,74.37
2023-03-29T05:35:36.721Z,73.67
2023-03-29T05:38:09.685Z,75.25
2023-03-29T05:40:38.756Z,75.61
2023-03-29T05:43:26.055Z,76.38
2023-03-29T05:45:55.191Z,74.67
2023-03-29T05:48:24.473Z,72.73
2023-03-29T05:50:54.732Z,74.25
2023-03-29T05:53:25.871Z,74.00
2023-03-29T05:55:55.761Z,73.52
2023-03-29T05:58:26.857Z,70.96
2023-03-29T06:00:56.105Z,69.89
2023-03-29T06:03:51.471Z,68.89
2023-03-29T06:06:22.346Z,68.80
2023-03-29T06:08:52.093Z,68.23
2023-03-29T06:11:42.068Z,67.93
2023-03-29T06:14:25.715Z,68.23
2023-03-29T06:17:03.559Z,68.85
2023-03-29T06:19:31.946Z,68.43
2023-03-29T06:22:00.189Z,68.30
2023-03-29T06:24:33.440Z,66.57
2023-03-29T06:27:07.180Z,67.65
2023-03-29T06:29:35.340Z,67.58
2023-03-29T06:32:03.571Z,65.75
2023-03-29T06:34:48.335Z,65.17
2023-03-29T06:37:49.579Z,65.45
2023-03-29T06:40:27.470Z,64.35
2023-03-29T06:42:57.963Z,64.95
2023-03-29T06:45:44.965Z,65.06
2023-03-29T06:48:29.535Z,63.41
2023-03-29T06:50:57.860Z,64.88
2023-03-29T06:53:29.798Z,63.26
2023-03-29T06:56:09.305Z,62.84
2023-03-29T06:58:45.771Z,62.70
2023-03-29T07:01:37.549Z,62.52
2023-03-29T07:04:26.321Z,62.02
2023-03-29T07:07:20.150Z,59.82
2023-03-29T07:09:55.714Z,61.01
2023-03-29T07:12:26.493Z,60.56
2023-03-29T07:14:59.692Z,58.62
2023-03-29T07:17:48.624Z,59.59
2023-03-29T07:20:18.303Z,57.90
2023-03-29T07:22:51.221Z,57.88
2023-03-29T07:25:22.546Z,59.14
2023-03-29T07:27:53.286Z,56.40
2023-03-29T07:30:24.262Z,57.28
2023-03-29T07:32:53.837Z,59.74
2023-03-29T07:35:32.848Z,59.93
2023-03-29T07:38:02.203Z,59.73
2023-03-29T07:40:31.297Z,60.53
2023-03-29T07:43:01.453Z,59.18
2023-03-29T07:45:33.014Z,59.59
2023-03-29T07:48:21.216Z,59.66
2023-03-29T07:51:02.264Z,59.31
2023-03-29T07:53:36.058Z,58.83
2023-03-29T07:56:09.003Z,58.88
2023-03-29T07:58:52.951Z,59.36
2023-03-29T08:01:21.776Z,61.04
2023-03-29T08:04:08.969Z,59.03
2023-03-29T08:07:06.551Z,57.78
2023-03-29T08:10:00.966Z,59.16
2023-03-29T08:12:48.908Z,58.39
2023-03-29T08:15:19.880Z,57.05
2023-03-29T08:17:48.379Z,58.18
2023-03-29T08:20:17.330Z,55.94
2023-03-29T08:22:48.930Z,56.95
2023-03-29T08:25:20.052Z,56.74
2023-03-29T08:27:52.292Z,55.60
2023-03-29T08:30:33.283Z,56.43
2023-03-29T08:33:02.542Z,57.16
2023-03-29T08:35:31.135Z,56.04
2023-03-29T08:38:21.860Z,57.00
2023-03-29T08:40:52.024Z,55.91
2023-03-29T08:43:58.127Z,53.56
2023-03-29T08:46:42.453Z,53.84
2023-03-29T08:49:24.023Z,56.21
2023-03-29T08:51:58.071Z,55.33
2023-03-29T08:54:29.957Z,54.20
2023-03-29T08:57:29.209Z,53.83
2023-03-29T09:00:05.762Z,54.99
2023-03-29T09:02:38.366Z,54.89
2023-03-29T09:05:18.865Z,53.18
2023-03-29T09:07:57.059Z,52.96
2023-03-29T09:10:37.356Z,53.13
2023-03-29T09:13:20.650Z,51.67
2023-03-29T09:15:53.544Z,52.47
2023-03-29T09:18:45.582Z,51.48
2023-03-29T09:21:21.603Z,50.61
2023-03-29T09:24:08.654Z,51.23
2023-03-29T09:26:53.625Z,49.57
2023-03-29T09:29:46.609Z,49.66
2023-03-29T09:32:21.682Z,50.26
2023-03-29T09:35:04.512Z,49.43
2023-03-29T09:37:36.762Z,50.57
2023-03-29T09:40:12.606Z,49.16
2023-03-29T09:43:07.454Z,48.01
2023-03-29T09:45:38.571Z,49.57
2023-03-29T09:48:12.806Z,48.45
2023-03-29T09:50:47.407Z,48.85
2023-03-29T09:53:17.164Z,48.25
2023-03-29T09:55:52.668Z,47.89
2023-03-29T09:58:45.237Z,48.06
2023-03-29T10:01:17.486Z,48.26
2023-03-29T10:03:51.679Z,48.46
2023-03-29T10:06:25.633Z,47.16
2023-03-29T10:09:03.092Z,47.46
2023-03-29T10:11:40.132Z,47.22
2023-03-29T10:14:16.491Z,47.11
2023-03-29T10:16:46.589Z,47.64
2023-03-29T10:19:20.813Z,46.23
2023-03-29T10:21:51.659Z,46.20
2023-03-29T10:24:21.820Z,45.14
2023-03-29T10:26:55.622Z,45.46
2023-03-29T10:29:25.531Z,46.12
2023-03-29T10:31:54.495Z,47.36
2023-03-29T10:34:28.218Z,44.57
2023-03-29T10:37:01.426Z,44.31
2023-03-29T10:39:34.569Z,44.87
2023-03-29T10:42:05.359Z,44.09
2023-03-29T10:44:35.806Z,43.77
2023-03-29T10:47:19.679Z,43.82
2023-03-29T10:49:53.207Z,44.55
2023-03-29T10:52:24.661Z,41.58
2023-03-29T10:54:55.546Z,41.15
2023-03-29T10:57:37.324Z,40.59
2023-03-29T11:00:12.528Z,41.65
2023-03-29T11:03:21.692Z,41.96
2023-03-29T11:05:57.471Z,39.55
2023-03-29T11:08:41.738Z,40.61
2023-03-29T11:11:41.320Z,39.79
2023-03-29T11:14:18.080Z,40.23
2023-03-29T11:16:56.006Z,40.22
2023-03-29T11:19:43.497Z,40.11
2023-03-29T11:22:18.197Z,38.82
2023-03-29T11:25:08.215Z,39.64
2023-03-29T11:27:42.943Z,38.67
2023-03-29T11:30:18.144Z,38.14
2023-03-29T11:32:55.231Z,38.20
2023-03-29T11:35:37.189Z,38.52
2023-03-29T11:38:15.200Z,39.25
2023-03-29T11:40:58.785Z,38.99
2023-03-29T11:43:32.201Z,40.24
2023-03-29T11:46:05.054Z,39.15
2023-03-29T11:48:38.365Z,39.48
2023-03-29T11:51:12.263Z,39.26
2023-03-29T11:53:47.667Z,36.51
2023-03-29T11:56:23.379Z,35.52
2023-03-29T11:58:59.102Z,36.23
2023-03-29T12:01:32.747Z,37.17
2023-03-29T12:04:06.924Z,39.77
2023-03-29T12:06:42.385Z,39.74
2023-03-29T12:09:24.063Z,41.69
2023-03-29T12:12:00.638Z,37.66
2023-03-29T12:14:37.940Z,39.39
2023-03-29T12:17:13.201Z,36.98
2023-03-29T12:19:46.525Z,34.10
2023-03-29T12:22:15.567Z,34.11
2023-03-29T12:24:50.099Z,31.88
2023-03-29T12:27:26.656Z,35.10
2023-03-29T12:30:25.194Z,32.51
2023-03-29T12:33:16.098Z,34.25
2023-03-29T12:36:13.743Z,35.19
2023-03-29T12:38:44.116Z,34.68
2023-03-29T12:41:38.326Z,37.19
2023-03-29T12:44:34.552Z,37.96
2023-03-29T12:47:22.226Z,36.91
2023-03-29T12:49:56.220Z,38.71
2023-03-29T12:52:28.685Z,37.78
2023-03-29T12:54:58.862Z,38.58
2023-03-29T12:57:39.740Z,37.94
2023-03-29T13:00:27.258Z,42.49
2023-03-29T13:03:04.279Z,39.51
2023-03-29T13:05:35.198Z,39.90
2023-03-29T13:08:22.950Z,41.54
2023-03-29T13:10:55.513Z,40.61
2023-03-29T13:13:28.781Z,40.90
2023-03-29T13:16:16.704Z,40.46
2023-03-29T13:19:06.768Z,40.43
2023-03-29T13:21:46.566Z,39.79
2023-03-29T13:24:33.131Z,39.77
2023-03-29T13:27:09.966Z,38.86
2023-03-29T13:29:52.530Z,38.97
2023-03-29T13:32:34.677Z,39.30
2023-03-29T13:35:10.731Z,37.28
2023-03-29T13:37:48.820Z,37.86
2023-03-29T13:40:43.734Z,36.32
2023-03-29T13:43:21.734Z,35.19
2023-03-29T13:46:05.388Z,35.45
2023-03-29T13:48:52.892Z,37.96
2023-03-29T13:51:29.083Z,36.57
2023-03-29T13:54:02.848Z,35.72
2023-03-29T13:56:35.972Z,34.46
2023-03-29T13:59:11.517Z,32.45
2023-03-29T14:01:43.915Z,32.93
2023-03-29T14:04:21.671Z,33.53
2023-03-29T14:06:54.139Z,31.11
2023-03-29T14:09:28.217Z,27.57
2023-03-29T14:11:57.553Z,27.97
2023-03-29T14:14:28.730Z,27.48
2023-03-29T14:16:58.433Z,26.89
2023-03-29T14:19:32.626Z,26.93
2023-03-29T14:22:02.218Z,27.45
2023-03-29T14:24:37.060Z,26.63
2023-03-29T14:27:07.200Z,27.19
2023-03-29T14:29:36.672Z,28.33
2023-03-29T14:32:12.789Z,28.88
2023-03-29T14:34:42.524Z,29.00
2023-03-29T14:37:12.810Z,29.63
2023-03-29T14:39:42.242Z,31.47
2023-03-29T14:42:17.772Z,33.11
2023-03-29T14:44:46.082Z,33.58
2023-03-29T14:47:19.136Z,33.51
2023-03-29T14:49:48.829Z,34.68
2023-03-29T14:52:17.445Z,34.76
2023-03-29T14:54:49.621Z,35.42
2023-03-29T14:57:19.459Z,37.01
2023-03-29T14:59:54.942Z,36.35
2023-03-29T15:02:28.591Z,36.96
2023-03-29T15:04:59.817Z,37.40
2023-03-29T15:07:29.628Z,38.52
2023-03-29T15:09:59.528Z,39.30
2023-03-29T15:12:30.781Z,39.47
2023-03-29T15:15:00.374Z,39.98
2023-03-29T15:17:43.122Z,40.22
2023-03-29T15:20:23.562Z,41.06
2023-03-29T15:22:55.204Z,41.39
2023-03-29T15:25:23.996Z,41.39
2023-03-29T15:27:57.178Z,41.84
2023-03-29T15:30:34.835Z,42.34
2023-03-29T15:33:23.160Z,42.41
2023-03-29T15:35:54.744Z,42.62
2023-03-29T15:38:30.234Z,42.84
2023-03-29T15:41:06.526Z,44.54
2023-03-29T15:43:35.310Z,41.91
2023-03-29T15:46:04.058Z,42.51
2023-03-29T15:48:33.751Z,43.34
2023-03-29T15:51:06.354Z,43.04
2023-03-29T15:53:35.211Z,43.71
2023-03-29T15:56:07.486Z,44.26
2023-03-29T15:58:37.996Z,44.63
2023-03-29T16:01:13.778Z,44.01
2023-03-29T16:03:42.315Z,43.55
2023-03-29T16:06:13.697Z,44.48
2023-03-29T16:08:42.151Z,44.02
2023-03-29T16:11:10.415Z,43.58
2023-03-29T16:13:38.690Z,45.11
2023-03-29T16:16:08.446Z,45.47
2023-03-29T16:18:36.901Z,45.08
2023-03-29T16:21:06.443Z,45.29
2023-03-29T16:23:36.047Z,44.77
2023-03-29T16:26:06.603Z,44.57
2023-03-29T16:28:34.938Z,44.58
2023-03-29T16:31:03.243Z,44.87
2023-03-29T16:33:31.636Z,45.03
2023-03-29T16:36:00.230Z,45.44
2023-03-29T16:38:29.380Z,45.24
2023-03-29T16:40:58.926Z,45.12
2023-03-29T16:43:27.368Z,45.73
2023-03-29T16:45:55.703Z,46.27
2023-03-29T16:48:23.963Z,46.39
2023-03-29T16:50:52.259Z,46.63
2023-03-29T16:53:21.624Z,46.88
2023-03-29T16:55:50.692Z,46.92
2023-03-29T16:58:20.730Z,49.01
2023-03-29T17:00:49.670Z,47.57
2023-03-29T17:03:18.046Z,48.31
2023-03-29T17:05:49.158Z,47.80
2023-03-29T17:08:17.848Z,47.89
2023-03-29T17:10:46.489Z,49.15
2023-03-29T17:13:14.868Z,49.59
2023-03-29T17:15:44.546Z,49.38
2023-03-29T17:18:13.991Z,50.38
2023-03-29T17:20:42.686Z,50.04
2023-03-29T17:23:11.452Z,50.54
2023-03-29T17:25:40.683Z,48.87
2023-03-29T17:28:08.935Z,48.01
2023-03-29T17:30:38.422Z,48.52
2023-03-29T17:33:09.703Z,48.57
2023-03-29T17:35:38.225Z,50.25
2023-03-29T17:38:06.719Z,51.48
2023-03-29T17:40:35.228Z,51.20
2023-03-29T17:43:04.159Z,51.93
2023-03-29T17:45:35.751Z,53.21
2023-03-29T17:48:06.086Z,52.62
2023-03-29T17:50:37.296Z,53.95
2023-03-29T17:53:06.786Z,54.95
2023-03-29T17:55:35.126Z,57.14
2023-03-29T17:58:04.155Z,58.72
2023-03-29T18:00:32.992Z,59.97
2023-03-29T18:03:02.180Z,59.39
2023-03-29T18:05:31.396Z,60.31
2023-03-29T18:08:03.069Z,61.25
2023-03-29T18:10:32.835Z,61.26
2023-03-29T18:13:02.278Z,60.63
2023-03-29T18:15:31.268Z,61.52
2023-03-29T18:18:00.680Z,62.23
2023-03-29T18:20:29.469Z,63.13
2023-03-29T18:22:58.979Z,64.35
2023-03-29T18:25:29.988Z,62.22
2023-03-29T18:27:59.228Z,63.26
2023-03-29T18:30:29.560Z,62.48
2023-03-29T18:32:59.668Z,62.81
2023-03-29T18:35:29.677Z,63.82
2023-03-29T18:37:58.914Z,61.97
2023-03-29T18:40:32.565Z,60.54
2023-03-29T18:43:02.533Z,60.47
2023-03-29T18:45:32.742Z,62.15
2023-03-29T18:48:02.482Z,64.12
2023-03-29T18:50:32.939Z,64.65
2023-03-29T18:53:02.759Z,65.69
2023-03-29T18:55:34.038Z,66.42
2023-03-29T18:58:05.501Z,67.42
2023-03-29T19:00:36.033Z,68.15
2023-03-29T19:03:05.648Z,67.59
2023-03-29T19:05:36.694Z,66.98
2023-03-29T19:08:08.272Z,67.85
2023-03-29T19:10:40.686Z,67.80
2023-03-29T19:13:14.548Z,68.68
2023-03-29T19:15:44.354Z,67.84
2023-03-29T19:18:15.134Z,69.58
2023-03-29T19:20:46.339Z,70.78
2023-03-29T19:23:17.916Z,71.14
2023-03-29T19:25:54.839Z,72.00
2023-03-29T19:28:26.149Z,72.00
2023-03-29T19:30:56.483Z,73.03
2023-03-29T19:33:26.059Z,73.21
2023-03-29T19:35:56.499Z,74.26
2023-03-29T19:38:26.382Z,73.96
2023-03-29T19:40:57.320Z,73.94
2023-03-29T19:43:29.826Z,73.87
2023-03-29T19:46:07.525Z,74.63
2023-03-29T19:48:37.514Z,75.45
2023-03-29T19:51:08.500Z,75.81
2023-03-29T19:53:39.004Z,75.92
2023-03-29T19:56:11.257Z,76.19
2023-03-29T19:58:41.369Z,76.38
2023-03-29T20:01:10.272Z,76.50
2023-03-29T20:03:41.631Z,77.18
2023-03-29T20:06:12.255Z,77.85
2023-03-29T20:08:41.611Z,78.53
2023-03-29T20:11:16.538Z,78.53
2023-03-29T20:13:46.254Z,78.23
2023-03-29T20:16:16.620Z,78.57
2023-03-29T20:18:46.714Z,79.49
2023-03-29T20:21:18.467Z,79.48
2023-03-29T20:23:49.672Z,80.18
2023-03-29T20:26:19.577Z,80.14
2023-03-29T20:28:48.002Z,80.56
2023-03-29T20:31:17.203Z,81.11
2023-03-29T20:33:46.127Z,81.15
2023-03-29T20:36:18.558Z,81.58
2023-03-29T20:38:46.967Z,81.83
2023-03-29T20:41:15.325Z,81.16
2023-03-29T20:43:46.296Z,82.03
2023-03-29T20:46:23.905Z,82.37
2023-03-29T20:48:54.159Z,82.75
2023-03-29T20:51:30.358Z,82.69
2023-03-29T20:54:02.833Z,83.33
2023-03-29T20:56:31.741Z,83.82
2023-03-29T20:59:01.920Z,83.01
2023-03-29T21:01:31.295Z,82.93
2023-03-29T21:03:59.862Z,83.50
2023-03-29T21:06:28.489Z,84.63
2023-03-29T21:08:57.506Z,84.04
2023-03-29T21:11:25.798Z,84.59
2023-03-29T21:13:54.099Z,84.81
2023-03-29T21:16:25.324Z,85.66
2023-03-29T21:18:54.584Z,85.72
2023-03-29T21:21:23.144Z,86.15
2023-03-29T21:23:51.459Z,86.50
2023-03-29T21:26:19.716Z,86.44
2023-03-29T21:28:48.747Z,86.98
2023-03-29T21:31:17.075Z,86.70
2023-03-29T21:33:46.768Z,86.10
2023-03-29T21:36:15.012Z,86.85
2023-03-29T21:38:43.259Z,87.26
2023-03-29T21:41:12.115Z,87.17
2023-03-29T21:43:40.503Z,87.47
2023-03-29T21:46:09.103Z,87.90
2023-03-29T21:48:37.360Z,88.98
2023-03-29T21:51:07.508Z,89.54
2023-03-29T21:53:36.239Z,89.53
2023-03-29T21:56:04.846Z,90.53
2023-03-29T21:58:33.087Z,91.06
2023-03-29T22:01:03.879Z,91.27
2023-03-29T22:03:32.442Z,90.64
2023-03-29T22:06:03.600Z,89.39
2023-03-29T22:08:33.137Z,90.63
2023-03-29T22:11:08.329Z,90.27
2023-03-29T22:13:36.804Z,91.02
2023-03-29T22:16:06.193Z,91.11
2023-03-29T22:18:43.303Z,91.63
2023-03-29T22:21:14.524Z,93.05
2023-03-29T22:23:45.947Z,93.04
2023-03-29T22:26:16.165Z,92.53
2023-03-29T22:28:44.626Z,92.90
2023-03-29T22:31:15.171Z,95.19
2023-03-29T22:33:44.059Z,94.70
2023-03-29T22:36:16.885Z,94.57
2023-03-29T22:38:48.114Z,96.06
2023-03-29T22:41:17.589Z,94.58
2023-03-29T22:43:46.192Z,93.30
2023-03-29T22:46:15.418Z,92.46
2023-03-29T22:48:43.613Z,91.80
2023-03-29T22:51:11.906Z,95.15
2023-03-29T22:53:40.116Z,95.09
2023-03-29T22:56:10.562Z,96.32
2023-03-29T22:58:39.160Z,95.55
2023-03-29T23:01:08.292Z,95.75
2023-03-29T23:03:36.930Z,95.49
2023-03-29T23:06:05.662Z,96.32
2023-03-29T23:08:35.128Z,97.54
2023-03-29T23:11:04.459Z,96.61
2023-03-29T23:13:35.298Z,97.03
2023-03-29T23:16:04.963Z,95.66
2023-03-29T23:18:34.931Z,94.57
2023-03-29T23:21:05.874Z,94.19
2023-03-29T23:23:34.698Z,96.04
2023-03-29T23:26:02.891Z,96.42
2023-03-29T23:28:31.506Z,97.15
2023-03-29T23:31:03.410Z,97.24
2023-03-29T23:33:35.483Z,94.38
2023-03-29T23:36:06.057Z,94.41
2023-03-29T23:38:36.607Z,95.57
2023-03-29T23:41:06.849Z,96.52
2023-03-29T23:43:37.356Z,95.26
2023-03-29T23:46:09.027Z,96.08
2023-03-29T23:48:37.253Z,96.42
2023-03-29T23:51:06.148Z,94.43
2023-03-29T23:53:34.571Z,93.69
2023-03-29T23:56:05.237Z,92.54
2023-03-29T23:58:35.182Z,92.44
